createdAt,value
2023-04-13T00:10:40.919Z,8.6
2023-04-13T00:30:40.927Z,8.6
2023-04-13T00:50:40.901Z,8.59
2023-04-13T01:10:40.890Z,8.58
2023-04-13T01:30:40.888Z,8.56
2023-04-13T01:50:40.747Z,8.53
2023-04-13T02:30:40.885Z,8.5
2023-04-13T02:50:40.855Z,8.5
2023-04-13T03:10:40.875Z,8.49
2023-04-13T03:50:40.865Z,8.45
2023-04-13T04:10:40.860Z,8.42
2023-04-13T04:30:40.832Z,8.4
2023-04-13T04:50:40.829Z,8.39
2023-04-13T05:10:40.849Z,8.39
2023-04-13T05:30:40.826Z,8.37
2023-04-13T05:50:40.864Z,8.35
2023-04-13T06:10:40.831Z,8.33
2023-04-13T06:50:40.856Z,8.3
2023-04-13T07:10:40.794Z,8.29
2023-04-13T07:30:40.801Z,8.28
2023-04-13T07:50:40.784Z,8.27
2023-04-13T08:10:40.255Z,8.25
2023-04-13T08:30:40.650Z,8.22
2023-04-13T09:10:40.765Z,8.2
2023-04-13T09:30:40.778Z,8.19
2023-04-13T09:50:40.771Z,8.19
2023-04-13T10:10:40.754Z,8.18
2023-04-13T10:30:40.228Z,8.17
2023-04-13T10:50:40.625Z,8.17
2023-04-13T11:30:40.762Z,8.15
2023-04-13T11:50:40.595Z,8.14
2023-04-13T12:10:46.858Z,8.14
2023-04-13T12:30:40.756Z,8.13
2023-04-13T13:10:40.190Z,8.12
2023-04-13T13:30:40.174Z,8.12
2023-04-13T13:50:40.688Z,8.12
2023-04-13T14:10:39.910Z,8.13
2023-04-13T14:30:40.701Z,8.13
2023-04-13T14:50:40.714Z,8.14
2023-04-13T15:10:40.662Z,8.14
2023-04-13T15:30:40.663Z,8.15
2023-04-13T16:30:40.102Z,8.18
2023-04-13T16:50:40.620Z,8.19
2023-04-13T17:10:40.625Z,8.19
2023-04-13T17:30:40.612Z,8.2
2023-04-13T17:50:40.623Z,8.21
2023-04-13T18:10:40.091Z,8.23
2023-04-13T18:30:39.828Z,8.26
2023-04-13T18:50:40.606Z,8.28
2023-04-13T19:10:40.599Z,8.28
2023-04-13T19:30:40.575Z,8.29
2023-04-13T19:50:40.618Z,8.29
2023-04-13T20:10:40.569Z,8.3
2023-04-13T20:30:40.427Z,8.31
2023-04-13T20:50:40.549Z,8.32
2023-04-13T21:10:40.551Z,8.34
2023-04-13T21:30:40.545Z,8.34
2023-04-13T21:50:40.576Z,8.35
2023-04-13T22:10:40.582Z,8.36
2023-04-13T22:30:40.518Z,8.36
2023-04-13T22:50:40.367Z,8.36
2023-04-13T23:10:39.734Z,8.36
2023-04-13T23:30:40.503Z,8.36
2023-04-13T23:50:40.499Z,8.35
